Terminal Aerodrome Forecast
Issued by NWS

Current Version | Previous Version | Text Only | Print | Product List | Glossary On
Versions: 1 2 3 4 5 6 7 8 9 10 11 12 13 14 15 16
000
FTAK31 PAJN 291700
TAFAPG
TAF
PAPG 291721Z 2918/3018 07003KT 4SM -RA BKN005 OVC010
     FM292200 06005KT P6SM -SHRA SCT025 OVC050
     FM300300 VRB03KT P6SM -SHRA BKN050
     FM301200 00000KT 4SM -SHRA BR SCT005 BKN025 OVC050
      AMD LTD TO CLD VIS AND WIND 3006/3015=

USA.gov is the U.S. government's official web portal to all federal, state and local government web resources and services.